ZKEAV NZAR-NZAR

Flight info

Callsign ZKEAV
Flight time N/A
Altitude 5500
Route CLEVN DCT NZGB DCT CLEVN
Aircraft C208/L-SDFGRY/C

Departure

Time 2026-04-26 03:46
Airport Ardmore Airport (NZAR)

Arrival

Time N/A
Airport Ardmore Airport (NZAR)
Time Latitude Longitude Altitude Speed Heading
2026-04-26 03:35 -37.03220 174.97719 114 ft 0 kts 46°
2026-04-26 03:37 -37.03221 174.97719 114 ft 0 kts 46°
2026-04-26 03:39 -37.03221 174.97718 114 ft 0 kts 46°
2026-04-26 03:42 -37.03221 174.97719 114 ft 1 kts 46°
2026-04-26 03:43 -37.03180 174.97742 113 ft 11 kts 20°
2026-04-26 03:43 -37.03086 174.97710 114 ft 19 kts 315°
2026-04-26 03:43 -37.03004 174.97648 115 ft 8 kts 53°
2026-04-26 03:43 -37.02941 174.97731 114 ft 18 kts 45°
2026-04-26 03:44 -37.02831 174.97870 114 ft 26 kts 49°
2026-04-26 03:44 -37.02811 174.98097 113 ft 22 kts 79°
2026-04-26 03:44 -37.02725 174.98089 114 ft 12 kts 335°
2026-04-26 03:44 -37.02658 174.98025 115 ft 13 kts 306°
2026-04-26 03:45 -37.02668 174.97978 113 ft 1 kts 224°
2026-04-26 03:45 -37.02756 174.97865 114 ft 42 kts 225°
2026-04-26 03:45 -37.03068 174.97476 157 ft 78 kts 224°
2026-04-26 03:45 -37.03482 174.96972 337 ft 87 kts 227°
2026-04-26 03:46 -37.03966 174.96410 511 ft 101 kts 224°
2026-04-26 03:46 -37.04578 174.95946 764 ft 108 kts 187°
2026-04-26 03:46 -37.05267 174.96334 1047 ft 120 kts 130°
2026-04-26 03:47 -37.04971 174.98558 1134 ft 166 kts 40°
2026-04-26 03:47 -37.04031 174.99478 1115 ft 175 kts 37°
2026-04-26 03:47 -37.03086 175.00437 1110 ft 175 kts 40°
2026-04-26 03:47 -37.02156 175.01420 1111 ft 176 kts 40°
2026-04-26 03:48 -37.01230 175.02414 1114 ft 177 kts 40°
2026-04-26 03:48 -37.00298 175.03428 1105 ft 176 kts 40°
2026-04-26 03:48 -36.99373 175.04428 1109 ft 175 kts 40°
2026-04-26 03:48 -36.98441 175.05418 1109 ft 175 kts 39°
2026-04-26 03:49 -36.97518 175.06405 1109 ft 176 kts 40°
2026-04-26 03:49 -36.96580 175.07409 1109 ft 178 kts 40°
2026-04-26 03:49 -36.95636 175.08421 1103 ft 179 kts 40°
2026-04-26 03:49 -36.94685 175.09430 1107 ft 179 kts 39°
2026-04-26 03:50 -36.93739 175.10429 1102 ft 178 kts 39°
2026-04-26 03:50 -36.92797 175.11427 1134 ft 174 kts 39°
2026-04-26 03:50 -36.91833 175.12289 1274 ft 166 kts 22°
2026-04-26 03:50 -36.90776 175.12727 1464 ft 159 kts 16°
2026-04-26 03:51 -36.89757 175.13197 1658 ft 154 kts 21°
2026-04-26 03:51 -36.88783 175.13702 1852 ft 150 kts 21°
2026-04-26 03:51 -36.87828 175.14209 2050 ft 148 kts 21°
2026-04-26 03:51 -36.86881 175.14708 2189 ft 151 kts 21°
2026-04-26 03:52 -36.85873 175.15241 2195 ft 162 kts 21°
2026-04-26 03:52 -36.84814 175.15795 2206 ft 169 kts 21°
2026-04-26 03:52 -36.83714 175.16368 2212 ft 173 kts 21°
2026-04-26 03:52 -36.82585 175.16956 2206 ft 177 kts 21°
2026-04-26 03:53 -36.81447 175.17550 2236 ft 176 kts 21°
2026-04-26 03:53 -36.80340 175.18126 2436 ft 168 kts 21°
2026-04-26 03:53 -36.79279 175.18678 2634 ft 163 kts 20°
2026-04-26 03:53 -36.78244 175.19217 2828 ft 159 kts 20°
2026-04-26 03:54 -36.77230 175.19744 3028 ft 157 kts 20°
2026-04-26 03:54 -36.76228 175.20265 3193 ft 157 kts 20°
2026-04-26 03:54 -36.75183 175.20808 3199 ft 167 kts 21°
2026-04-26 03:54 -36.74105 175.21374 3206 ft 174 kts 21°
2026-04-26 03:55 -36.72976 175.21963 3209 ft 178 kts 21°
2026-04-26 03:55 -36.71817 175.22565 3219 ft 181 kts 21°
2026-04-26 03:55 -36.70674 175.23159 3350 ft 176 kts 21°
2026-04-26 03:55 -36.69553 175.23742 3473 ft 173 kts 21°
2026-04-26 03:56 -36.68431 175.24325 3494 ft 177 kts 21°
2026-04-26 03:56 -36.67278 175.24924 3498 ft 181 kts 21°
2026-04-26 03:56 -36.66109 175.25530 3500 ft 182 kts 21°
2026-04-26 03:56 -36.64932 175.26141 3498 ft 184 kts 21°
2026-04-26 03:57 -36.63747 175.26755 3501 ft 184 kts 21°
2026-04-26 03:57 -36.62560 175.27371 3502 ft 185 kts 21°
2026-04-26 03:57 -36.61369 175.27988 3504 ft 186 kts 21°
2026-04-26 03:57 -36.60173 175.28608 3505 ft 187 kts 21°
2026-04-26 03:58 -36.58972 175.29230 3505 ft 187 kts 21°
2026-04-26 03:58 -36.57769 175.29849 3506 ft 187 kts 21°
2026-04-26 03:58 -36.56568 175.30473 3505 ft 187 kts 21°
2026-04-26 03:58 -36.55367 175.31098 3505 ft 187 kts 21°
2026-04-26 03:59 -36.54183 175.31710 3504 ft 187 kts 21°
2026-04-26 03:59 -36.52984 175.32330 3504 ft 186 kts 21°
2026-04-26 03:59 -36.51780 175.32952 3509 ft 188 kts 20°
2026-04-26 03:59 -36.50561 175.33580 3501 ft 191 kts 21°
2026-04-26 04:00 -36.49336 175.34215 3501 ft 189 kts 21°
2026-04-26 04:00 -36.48124 175.34859 3502 ft 189 kts 20°
2026-04-26 04:00 -36.46914 175.35506 3505 ft 190 kts 21°
2026-04-26 04:00 -36.45681 175.36099 3506 ft 189 kts 19°
2026-04-26 04:01 -36.44461 175.36713 3506 ft 189 kts 21°
2026-04-26 04:01 -36.43267 175.37342 3506 ft 188 kts 21°
2026-04-26 04:01 -36.42045 175.37979 3504 ft 188 kts 21°
2026-04-26 04:01 -36.40855 175.38594 3498 ft 187 kts 21°
2026-04-26 04:02 -36.39650 175.39215 3498 ft 187 kts 21°
2026-04-26 04:02 -36.38445 175.39835 3437 ft 190 kts 21°
2026-04-26 04:02 -36.37207 175.40471 3235 ft 193 kts 21°
2026-04-26 04:02 -36.35969 175.41108 3030 ft 191 kts 22°
2026-04-26 04:03 -36.34743 175.41740 2826 ft 191 kts 22°
2026-04-26 04:03 -36.33520 175.42370 2617 ft 189 kts 22°
2026-04-26 04:03 -36.32310 175.42993 2421 ft 187 kts 22°
2026-04-26 04:03 -36.31117 175.43605 2216 ft 184 kts 22°
2026-04-26 04:04 -36.29938 175.44206 2016 ft 180 kts 21°
2026-04-26 04:04 -36.28860 175.44771 1792 ft 155 kts 22°
2026-04-26 04:04 -36.27934 175.45304 1552 ft 141 kts 24°
2026-04-26 04:04 -36.27081 175.45784 1361 ft 135 kts 24°
2026-04-26 04:05 -36.26239 175.46313 1198 ft 139 kts 24°
2026-04-26 04:05 -36.25319 175.46707 1017 ft 138 kts 13°
2026-04-26 04:05 -36.24414 175.47015 985 ft 130 kts 11°
2026-04-26 04:05 -36.23557 175.47211 999 ft 118 kts 353°
2026-04-26 04:06 -36.22840 175.46841 990 ft 110 kts 318°
2026-04-26 04:06 -36.22380 175.46122 989 ft 106 kts 295°
2026-04-26 04:06 -36.22055 175.45313 1004 ft 105 kts 290°
2026-04-26 04:06 -36.22061 175.44485 911 ft 94 kts 236°
2026-04-26 04:07 -36.22605 175.44208 720 ft 82 kts 181°
2026-04-26 04:07 -36.23074 175.44572 551 ft 86 kts 120°
2026-04-26 04:07 -36.23348 175.45242 407 ft 88 kts 126°
2026-04-26 04:07 -36.23659 175.45899 229 ft 87 kts 125°
2026-04-26 04:08 -36.23953 175.46517 33 ft 77 kts 124°
2026-04-26 04:08 -36.24169 175.46975 35 ft 47 kts 121°
2026-04-26 04:08 -36.24291 175.47235 34 ft 16 kts 119°
2026-04-26 04:08 -36.24315 175.47295 34 ft 6 kts 274°
2026-04-26 04:09 -36.24283 175.47217 34 ft 15 kts 300°
2026-04-26 04:09 -36.24219 175.47080 35 ft 22 kts 300°
2026-04-26 04:09 -36.24147 175.46925 34 ft 22 kts 297°
2026-04-26 04:09 -36.24071 175.46765 35 ft 17 kts 294°
2026-04-26 04:10 -36.24135 175.46743 34 ft 15 kts 161°
2026-04-26 04:10 -36.24225 175.46797 34 ft 4 kts 245°
2026-04-26 04:10 -36.24225 175.46795 34 ft 0 kts 269°
2026-04-26 04:12 -36.24225 175.46796 34 ft 0 kts 269°